sensor_id;sensor_type;location;lat;lon;timestamp;P1;durP1;ratioP1;P2;durP2;ratioP2
21999;SDS011;11164;48.818;2.322;2023-09-12T00:01:05;5.32;;;2.70;;
21999;SDS011;11164;48.818;2.322;2023-09-12T00:03:32;4.80;;;2.63;;
21999;SDS011;11164;48.818;2.322;2023-09-12T00:05:58;5.28;;;2.83;;
21999;SDS011;11164;48.818;2.322;2023-09-12T00:08:25;5.05;;;2.92;;
21999;SDS011;11164;48.818;2.322;2023-09-12T00:13:35;5.22;;;2.72;;
21999;SDS011;11164;48.818;2.322;2023-09-12T00:16:00;4.82;;;3.10;;
21999;SDS011;11164;48.818;2.322;2023-09-12T00:18:26;5.28;;;2.63;;
21999;SDS011;11164;48.818;2.322;2023-09-12T00:20:52;4.38;;;2.63;;
21999;SDS011;11164;48.818;2.322;2023-09-12T00:23:18;4.88;;;3.20;;
21999;SDS011;11164;48.818;2.322;2023-09-12T00:25:43;6.05;;;3.00;;
21999;SDS011;11164;48.818;2.322;2023-09-12T00:28:09;5.93;;;2.90;;
21999;SDS011;11164;48.818;2.322;2023-09-12T00:30:34;5.00;;;3.13;;
21999;SDS011;11164;48.818;2.322;2023-09-12T00:32:59;7.22;;;3.15;;
21999;SDS011;11164;48.818;2.322;2023-09-12T00:35:24;4.90;;;2.85;;
21999;SDS011;11164;48.818;2.322;2023-09-12T00:37:50;5.15;;;3.15;;
21999;SDS011;11164;48.818;2.322;2023-09-12T00:40:15;4.65;;;3.03;;
21999;SDS011;11164;48.818;2.322;2023-09-12T00:42:40;9.17;;;3.20;;
21999;SDS011;11164;48.818;2.322;2023-09-12T00:45:06;5.57;;;3.10;;
21999;SDS011;11164;48.818;2.322;2023-09-12T00:47:31;5.57;;;2.92;;
21999;SDS011;11164;48.818;2.322;2023-09-12T00:49:57;5.70;;;3.65;;
21999;SDS011;11164;48.818;2.322;2023-09-12T00:52:24;5.45;;;3.40;;
21999;SDS011;11164;48.818;2.322;2023-09-12T00:54:51;5.75;;;3.20;;
21999;SDS011;11164;48.818;2.322;2023-09-12T00:57:17;6.70;;;3.40;;
21999;SDS011;11164;48.818;2.322;2023-09-12T00:59:43;6.80;;;3.10;;
21999;SDS011;11164;48.818;2.322;2023-09-12T01:02:08;6.50;;;3.40;;
21999;SDS011;11164;48.818;2.322;2023-09-12T01:04:35;5.50;;;3.00;;
21999;SDS011;11164;48.818;2.322;2023-09-12T01:07:04;7.55;;;3.80;;
21999;SDS011;11164;48.818;2.322;2023-09-12T01:09:29;4.68;;;3.20;;
21999;SDS011;11164;48.818;2.322;2023-09-12T01:11:55;5.97;;;3.38;;
21999;SDS011;11164;48.818;2.322;2023-09-12T01:14:21;5.93;;;3.70;;
21999;SDS011;11164;48.818;2.322;2023-09-12T01:16:46;8.63;;;3.80;;
21999;SDS011;11164;48.818;2.322;2023-09-12T01:19:12;6.90;;;3.75;;
21999;SDS011;11164;48.818;2.322;2023-09-12T01:29:41;6.22;;;3.30;;
21999;SDS011;11164;48.818;2.322;2023-09-12T01:32:10;6.93;;;3.60;;
21999;SDS011;11164;48.818;2.322;2023-09-12T01:34:37;5.97;;;3.78;;
21999;SDS011;11164;48.818;2.322;2023-09-12T01:37:02;6.40;;;3.65;;
21999;SDS011;11164;48.818;2.322;2023-09-12T01:39:28;7.05;;;3.70;;
21999;SDS011;11164;48.818;2.322;2023-09-12T01:41:53;8.73;;;4.00;;
21999;SDS011;11164;48.818;2.322;2023-09-12T01:44:19;5.80;;;3.75;;
21999;SDS011;11164;48.818;2.322;2023-09-12T01:46:48;6.93;;;3.60;;
21999;SDS011;11164;48.818;2.322;2023-09-12T01:49:14;9.52;;;4.03;;
21999;SDS011;11164;48.818;2.322;2023-09-12T01:51:43;6.63;;;3.92;;
21999;SDS011;11164;48.818;2.322;2023-09-12T01:54:08;6.72;;;4.40;;
21999;SDS011;11164;48.818;2.322;2023-09-12T01:56:34;7.63;;;4.50;;
21999;SDS011;11164;48.818;2.322;2023-09-12T01:59:00;6.82;;;4.40;;
21999;SDS011;11164;48.818;2.322;2023-09-12T02:01:27;7.00;;;4.50;;
21999;SDS011;11164;48.818;2.322;2023-09-12T02:03:52;6.50;;;4.30;;
21999;SDS011;11164;48.818;2.322;2023-09-12T02:06:18;7.43;;;4.47;;
21999;SDS011;11164;48.818;2.322;2023-09-12T02:08:43;9.32;;;4.30;;
21999;SDS011;11164;48.818;2.322;2023-09-12T02:11:08;9.20;;;5.15;;
21999;SDS011;11164;48.818;2.322;2023-09-12T02:13:33;10.85;;;5.28;;
21999;SDS011;11164;48.818;2.322;2023-09-12T02:16:00;9.85;;;5.07;;
21999;SDS011;11164;48.818;2.322;2023-09-12T02:18:27;7.50;;;4.70;;
21999;SDS011;11164;48.818;2.322;2023-09-12T02:20:53;7.05;;;4.55;;
21999;SDS011;11164;48.818;2.322;2023-09-12T02:23:18;8.40;;;4.57;;
21999;SDS011;11164;48.818;2.322;2023-09-12T02:25:43;8.75;;;4.63;;
21999;SDS011;11164;48.818;2.322;2023-09-12T02:28:08;8.57;;;5.10;;
21999;SDS011;11164;48.818;2.322;2023-09-12T02:30:34;7.63;;;4.80;;
21999;SDS011;11164;48.818;2.322;2023-09-12T02:32:59;7.03;;;4.30;;
21999;SDS011;11164;48.818;2.322;2023-09-12T02:35:24;9.00;;;4.40;;
21999;SDS011;11164;48.818;2.322;2023-09-12T02:37:52;8.60;;;4.90;;
21999;SDS011;11164;48.818;2.322;2023-09-12T02:40:17;9.25;;;4.82;;
21999;SDS011;11164;48.818;2.322;2023-09-12T02:42:43;8.90;;;4.55;;
21999;SDS011;11164;48.818;2.322;2023-09-12T02:45:08;8.18;;;4.72;;
21999;SDS011;11164;48.818;2.322;2023-09-12T02:47:34;7.18;;;4.93;;
21999;SDS011;11164;48.818;2.322;2023-09-12T02:49:59;8.33;;;4.73;;
21999;SDS011;11164;48.818;2.322;2023-09-12T02:52:24;8.75;;;5.07;;
21999;SDS011;11164;48.818;2.322;2023-09-12T02:54:50;8.30;;;4.63;;
21999;SDS011;11164;48.818;2.322;2023-09-12T02:57:15;7.72;;;5.13;;
21999;SDS011;11164;48.818;2.322;2023-09-12T02:59:40;8.63;;;5.47;;
21999;SDS011;11164;48.818;2.322;2023-09-12T03:02:05;7.47;;;5.13;;
21999;SDS011;11164;48.818;2.322;2023-09-12T03:04:33;8.15;;;4.68;;
21999;SDS011;11164;48.818;2.322;2023-09-12T03:07:00;7.97;;;4.85;;
21999;SDS011;11164;48.818;2.322;2023-09-12T03:09:25;8.63;;;5.60;;
21999;SDS011;11164;48.818;2.322;2023-09-12T03:11:50;8.32;;;5.03;;
21999;SDS011;11164;48.818;2.322;2023-09-12T03:14:16;8.85;;;5.18;;
21999;SDS011;11164;48.818;2.322;2023-09-12T03:16:41;10.02;;;5.72;;
21999;SDS011;11164;48.818;2.322;2023-09-12T03:19:06;7.43;;;4.78;;
21999;SDS011;11164;48.818;2.322;2023-09-12T03:21:32;7.53;;;5.40;;
21999;SDS011;11164;48.818;2.322;2023-09-12T03:23:57;10.20;;;5.85;;
21999;SDS011;11164;48.818;2.322;2023-09-12T03:26:22;9.18;;;5.53;;
21999;SDS011;11164;48.818;2.322;2023-09-12T03:28:48;8.73;;;5.55;;
21999;SDS011;11164;48.818;2.322;2023-09-12T03:31:15;9.55;;;5.43;;
21999;SDS011;11164;48.818;2.322;2023-09-12T03:33:41;10.50;;;6.18;;
21999;SDS011;11164;48.818;2.322;2023-09-12T03:36:07;9.80;;;5.97;;
21999;SDS011;11164;48.818;2.322;2023-09-12T03:38:33;11.20;;;5.70;;
21999;SDS011;11164;48.818;2.322;2023-09-12T03:40:59;10.65;;;6.38;;
21999;SDS011;11164;48.818;2.322;2023-09-12T03:43:25;11.13;;;5.82;;
21999;SDS011;11164;48.818;2.322;2023-09-12T03:45:50;9.02;;;5.95;;
21999;SDS011;11164;48.818;2.322;2023-09-12T03:48:15;12.13;;;6.72;;
21999;SDS011;11164;48.818;2.322;2023-09-12T03:50:41;10.52;;;6.22;;
21999;SDS011;11164;48.818;2.322;2023-09-12T03:53:06;8.85;;;6.07;;
21999;SDS011;11164;48.818;2.322;2023-09-12T03:55:31;12.55;;;6.25;;
21999;SDS011;11164;48.818;2.322;2023-09-12T03:57:57;10.70;;;6.00;;
21999;SDS011;11164;48.818;2.322;2023-09-12T04:00:22;14.90;;;6.60;;
21999;SDS011;11164;48.818;2.322;2023-09-12T04:02:47;11.98;;;6.70;;
21999;SDS011;11164;48.818;2.322;2023-09-12T04:05:13;10.43;;;6.55;;
21999;SDS011;11164;48.818;2.322;2023-09-12T04:07:39;10.88;;;5.90;;
21999;SDS011;11164;48.818;2.322;2023-09-12T04:10:05;10.70;;;6.28;;
21999;SDS011;11164;48.818;2.322;2023-09-12T04:12:30;11.10;;;6.60;;
21999;SDS011;11164;48.818;2.322;2023-09-12T04:14:56;10.43;;;6.65;;
21999;SDS011;11164;48.818;2.322;2023-09-12T04:17:21;10.77;;;6.63;;
21999;SDS011;11164;48.818;2.322;2023-09-12T04:19:46;11.50;;;7.13;;
21999;SDS011;11164;48.818;2.322;2023-09-12T04:22:12;9.93;;;6.55;;
21999;SDS011;11164;48.818;2.322;2023-09-12T04:24:37;12.82;;;6.68;;
21999;SDS011;11164;48.818;2.322;2023-09-12T04:27:03;11.02;;;7.07;;
21999;SDS011;11164;48.818;2.322;2023-09-12T04:29:28;10.07;;;6.63;;
21999;SDS011;11164;48.818;2.322;2023-09-12T04:31:53;10.60;;;7.53;;
21999;SDS011;11164;48.818;2.322;2023-09-12T04:34:24;13.20;;;7.60;;
21999;SDS011;11164;48.818;2.322;2023-09-12T04:36:53;13.38;;;7.95;;
21999;SDS011;11164;48.818;2.322;2023-09-12T04:39:18;12.32;;;7.68;;
21999;SDS011;11164;48.818;2.322;2023-09-12T04:41:44;13.13;;;8.02;;
21999;SDS011;11164;48.818;2.322;2023-09-12T04:44:09;13.15;;;8.20;;
21999;SDS011;11164;48.818;2.322;2023-09-12T04:46:35;14.65;;;8.95;;
21999;SDS011;11164;48.818;2.322;2023-09-12T04:49:01;15.48;;;8.38;;
21999;SDS011;11164;48.818;2.322;2023-09-12T04:51:26;13.32;;;8.13;;
21999;SDS011;11164;48.818;2.322;2023-09-12T04:53:52;13.93;;;8.82;;
21999;SDS011;11164;48.818;2.322;2023-09-12T04:56:17;12.93;;;8.98;;
21999;SDS011;11164;48.818;2.322;2023-09-12T04:58:43;13.25;;;8.90;;
21999;SDS011;11164;48.818;2.322;2023-09-12T05:01:08;12.25;;;9.02;;
21999;SDS011;11164;48.818;2.322;2023-09-12T05:03:34;15.68;;;9.02;;
21999;SDS011;11164;48.818;2.322;2023-09-12T05:06:00;14.63;;;9.88;;
21999;SDS011;11164;48.818;2.322;2023-09-12T05:08:25;17.00;;;9.95;;
21999;SDS011;11164;48.818;2.322;2023-09-12T05:10:50;13.52;;;9.02;;
21999;SDS011;11164;48.818;2.322;2023-09-12T05:13:16;18.55;;;10.05;;
21999;SDS011;11164;48.818;2.322;2023-09-12T05:15:42;13.88;;;9.25;;
21999;SDS011;11164;48.818;2.322;2023-09-12T05:18:07;18.27;;;10.35;;
21999;SDS011;11164;48.818;2.322;2023-09-12T05:20:33;13.73;;;9.63;;
21999;SDS011;11164;48.818;2.322;2023-09-12T05:22:59;16.30;;;9.85;;
21999;SDS011;11164;48.818;2.322;2023-09-12T05:25:24;16.52;;;10.18;;
21999;SDS011;11164;48.818;2.322;2023-09-12T05:27:51;18.20;;;10.48;;
21999;SDS011;11164;48.818;2.322;2023-09-12T05:30:17;16.23;;;10.73;;
21999;SDS011;11164;48.818;2.322;2023-09-12T05:32:42;19.80;;;11.80;;
21999;SDS011;11164;48.818;2.322;2023-09-12T05:35:08;16.42;;;11.15;;
21999;SDS011;11164;48.818;2.322;2023-09-12T05:37:33;19.63;;;11.57;;
21999;SDS011;11164;48.818;2.322;2023-09-12T05:39:59;19.52;;;12.00;;
21999;SDS011;11164;48.818;2.322;2023-09-12T05:42:24;21.42;;;12.93;;
21999;SDS011;11164;48.818;2.322;2023-09-12T05:44:49;21.23;;;12.77;;
21999;SDS011;11164;48.818;2.322;2023-09-12T05:47:18;18.30;;;11.65;;
21999;SDS011;11164;48.818;2.322;2023-09-12T05:49:45;17.65;;;10.43;;
21999;SDS011;11164;48.818;2.322;2023-09-12T05:52:11;23.25;;;11.25;;
21999;SDS011;11164;48.818;2.322;2023-09-12T05:54:36;21.85;;;12.07;;
21999;SDS011;11164;48.818;2.322;2023-09-12T05:57:02;19.40;;;12.30;;
21999;SDS011;11164;48.818;2.322;2023-09-12T05:59:28;18.40;;;12.27;;
21999;SDS011;11164;48.818;2.322;2023-09-12T06:01:53;21.83;;;13.48;;
21999;SDS011;11164;48.818;2.322;2023-09-12T06:04:18;22.80;;;13.23;;
21999;SDS011;11164;48.818;2.322;2023-09-12T06:06:45;17.92;;;12.52;;
21999;SDS011;11164;48.818;2.322;2023-09-12T06:09:11;19.60;;;12.35;;
21999;SDS011;11164;48.818;2.322;2023-09-12T06:11:36;21.33;;;13.27;;
21999;SDS011;11164;48.818;2.322;2023-09-12T06:14:01;18.17;;;12.85;;
21999;SDS011;11164;48.818;2.322;2023-09-12T06:16:27;17.77;;;12.77;;
21999;SDS011;11164;48.818;2.322;2023-09-12T06:18:52;16.88;;;12.27;;
21999;SDS011;11164;48.818;2.322;2023-09-12T06:21:18;18.65;;;12.43;;
21999;SDS011;11164;48.818;2.322;2023-09-12T06:23:46;22.98;;;13.27;;
21999;SDS011;11164;48.818;2.322;2023-09-12T06:26:12;22.38;;;12.60;;
21999;SDS011;11164;48.818;2.322;2023-09-12T06:28:39;20.15;;;12.27;;
21999;SDS011;11164;48.818;2.322;2023-09-12T06:31:07;16.63;;;11.75;;
21999;SDS011;11164;48.818;2.322;2023-09-12T06:33:34;18.67;;;13.32;;
21999;SDS011;11164;48.818;2.322;2023-09-12T06:36:00;20.95;;;13.30;;
21999;SDS011;11164;48.818;2.322;2023-09-12T06:38:25;18.00;;;12.02;;
21999;SDS011;11164;48.818;2.322;2023-09-12T06:40:51;18.33;;;11.95;;
21999;SDS011;11164;48.818;2.322;2023-09-12T06:43:17;17.70;;;12.52;;
21999;SDS011;11164;48.818;2.322;2023-09-12T06:45:42;20.42;;;13.70;;
21999;SDS011;11164;48.818;2.322;2023-09-12T06:48:08;18.98;;;12.63;;
21999;SDS011;11164;48.818;2.322;2023-09-12T06:50:34;21.52;;;12.77;;
21999;SDS011;11164;48.818;2.322;2023-09-12T06:52:59;24.40;;;13.85;;
21999;SDS011;11164;48.818;2.322;2023-09-12T06:55:27;20.77;;;12.35;;
21999;SDS011;11164;48.818;2.322;2023-09-12T06:57:52;20.23;;;12.05;;
21999;SDS011;11164;48.818;2.322;2023-09-12T07:00:18;18.00;;;11.00;;
21999;SDS011;11164;48.818;2.322;2023-09-12T07:02:43;17.40;;;11.63;;
21999;SDS011;11164;48.818;2.322;2023-09-12T07:05:08;17.92;;;9.77;;
21999;SDS011;11164;48.818;2.322;2023-09-12T07:07:34;17.02;;;9.73;;
21999;SDS011;11164;48.818;2.322;2023-09-12T07:10:00;16.42;;;9.57;;
21999;SDS011;11164;48.818;2.322;2023-09-12T07:12:26;16.40;;;9.32;;
21999;SDS011;11164;48.818;2.322;2023-09-12T07:14:54;12.98;;;9.18;;
21999;SDS011;11164;48.818;2.322;2023-09-12T07:17:19;15.90;;;8.27;;
21999;SDS011;11164;48.818;2.322;2023-09-12T07:19:44;20.03;;;9.73;;
21999;SDS011;11164;48.818;2.322;2023-09-12T07:22:09;16.95;;;8.95;;
21999;SDS011;11164;48.818;2.322;2023-09-12T07:24:35;19.88;;;10.18;;
21999;SDS011;11164;48.818;2.322;2023-09-12T07:27:00;15.63;;;9.63;;
21999;SDS011;11164;48.818;2.322;2023-09-12T07:29:25;14.73;;;8.77;;
21999;SDS011;11164;48.818;2.322;2023-09-12T07:31:52;15.82;;;8.73;;
21999;SDS011;11164;48.818;2.322;2023-09-12T07:34:18;16.20;;;8.73;;
21999;SDS011;11164;48.818;2.322;2023-09-12T07:36:44;16.92;;;8.77;;
21999;SDS011;11164;48.818;2.322;2023-09-12T07:39:09;15.35;;;8.05;;
21999;SDS011;11164;48.818;2.322;2023-09-12T07:41:35;17.25;;;9.95;;
21999;SDS011;11164;48.818;2.322;2023-09-12T07:44:01;18.42;;;9.55;;
21999;SDS011;11164;48.818;2.322;2023-09-12T07:46:30;15.07;;;9.15;;
21999;SDS011;11164;48.818;2.322;2023-09-12T07:48:56;20.35;;;9.60;;
21999;SDS011;11164;48.818;2.322;2023-09-12T07:51:21;14.85;;;8.98;;
21999;SDS011;11164;48.818;2.322;2023-09-12T07:53:47;17.45;;;10.18;;
21999;SDS011;11164;48.818;2.322;2023-09-12T07:56:13;18.15;;;11.00;;
21999;SDS011;11164;48.818;2.322;2023-09-12T07:58:38;15.43;;;10.45;;
21999;SDS011;11164;48.818;2.322;2023-09-12T08:01:04;17.58;;;10.25;;
21999;SDS011;11164;48.818;2.322;2023-09-12T08:03:34;17.45;;;10.27;;
21999;SDS011;11164;48.818;2.322;2023-09-12T08:06:01;17.58;;;10.05;;
21999;SDS011;11164;48.818;2.322;2023-09-12T08:08:26;16.35;;;10.05;;
21999;SDS011;11164;48.818;2.322;2023-09-12T08:10:52;17.48;;;10.15;;
21999;SDS011;11164;48.818;2.322;2023-09-12T08:13:17;14.75;;;9.38;;
21999;SDS011;11164;48.818;2.322;2023-09-12T08:15:43;23.45;;;9.43;;
21999;SDS011;11164;48.818;2.322;2023-09-12T08:18:08;16.23;;;9.40;;
21999;SDS011;11164;48.818;2.322;2023-09-12T08:20:33;14.93;;;9.02;;
21999;SDS011;11164;48.818;2.322;2023-09-12T08:22:59;15.05;;;8.57;;
21999;SDS011;11164;48.818;2.322;2023-09-12T08:25:24;14.05;;;8.73;;
21999;SDS011;11164;48.818;2.322;2023-09-12T08:27:49;13.55;;;8.77;;
21999;SDS011;11164;48.818;2.322;2023-09-12T08:30:15;16.95;;;8.95;;
21999;SDS011;11164;48.818;2.322;2023-09-12T08:32:41;16.58;;;8.63;;
21999;SDS011;11164;48.818;2.322;2023-09-12T08:35:11;16.33;;;8.32;;
21999;SDS011;11164;48.818;2.322;2023-09-12T08:37:39;22.35;;;8.93;;
21999;SDS011;11164;48.818;2.322;2023-09-12T08:40:05;18.23;;;8.90;;
21999;SDS011;11164;48.818;2.322;2023-09-12T08:42:33;15.15;;;9.05;;
21999;SDS011;11164;48.818;2.322;2023-09-12T08:45:05;14.75;;;8.98;;
21999;SDS011;11164;48.818;2.322;2023-09-12T08:47:37;15.35;;;9.18;;
21999;SDS011;11164;48.818;2.322;2023-09-12T08:50:05;16.17;;;9.07;;
21999;SDS011;11164;48.818;2.322;2023-09-12T08:52:32;15.85;;;8.70;;
21999;SDS011;11164;48.818;2.322;2023-09-12T08:54:59;14.13;;;8.25;;
21999;SDS011;11164;48.818;2.322;2023-09-12T08:57:24;16.27;;;7.97;;
21999;SDS011;11164;48.818;2.322;2023-09-12T08:59:50;20.10;;;8.80;;
21999;SDS011;11164;48.818;2.322;2023-09-12T09:02:17;17.90;;;8.68;;
21999;SDS011;11164;48.818;2.322;2023-09-12T09:04:42;13.90;;;9.13;;
21999;SDS011;11164;48.818;2.322;2023-09-12T09:07:10;18.63;;;9.10;;
21999;SDS011;11164;48.818;2.322;2023-09-12T09:09:38;18.77;;;9.38;;
21999;SDS011;11164;48.818;2.322;2023-09-12T09:12:06;19.40;;;9.25;;
21999;SDS011;11164;48.818;2.322;2023-09-12T09:14:32;13.45;;;8.15;;
21999;SDS011;11164;48.818;2.322;2023-09-12T09:16:58;16.10;;;8.95;;
21999;SDS011;11164;48.818;2.322;2023-09-12T09:19:24;15.13;;;9.10;;
21999;SDS011;11164;48.818;2.322;2023-09-12T09:22:06;16.80;;;9.15;;
21999;SDS011;11164;48.818;2.322;2023-09-12T09:24:32;15.07;;;8.68;;
21999;SDS011;11164;48.818;2.322;2023-09-12T09:26:57;13.68;;;8.70;;
21999;SDS011;11164;48.818;2.322;2023-09-12T09:29:25;14.18;;;8.43;;
21999;SDS011;11164;48.818;2.322;2023-09-12T09:31:53;16.17;;;9.30;;
21999;SDS011;11164;48.818;2.322;2023-09-12T09:34:19;12.88;;;7.90;;
21999;SDS011;11164;48.818;2.322;2023-09-12T09:36:53;16.05;;;8.70;;
21999;SDS011;11164;48.818;2.322;2023-09-12T09:39:20;16.48;;;9.00;;
21999;SDS011;11164;48.818;2.322;2023-09-12T09:41:48;16.00;;;8.88;;
21999;SDS011;11164;48.818;2.322;2023-09-12T09:44:14;17.55;;;9.80;;
21999;SDS011;11164;48.818;2.322;2023-09-12T09:46:42;14.57;;;8.68;;
21999;SDS011;11164;48.818;2.322;2023-09-12T09:49:14;16.38;;;9.60;;
21999;SDS011;11164;48.818;2.322;2023-09-12T09:51:41;27.23;;;11.23;;
21999;SDS011;11164;48.818;2.322;2023-09-12T09:54:08;21.45;;;10.25;;
21999;SDS011;11164;48.818;2.322;2023-09-12T09:56:33;18.50;;;10.55;;
21999;SDS011;11164;48.818;2.322;2023-09-12T09:59:11;21.38;;;10.85;;
21999;SDS011;11164;48.818;2.322;2023-09-12T10:01:39;22.50;;;13.88;;
21999;SDS011;11164;48.818;2.322;2023-09-12T10:04:06;23.90;;;12.57;;
21999;SDS011;11164;48.818;2.322;2023-09-12T10:06:32;23.42;;;14.18;;
21999;SDS011;11164;48.818;2.322;2023-09-12T10:09:05;20.88;;;12.70;;
21999;SDS011;11164;48.818;2.322;2023-09-12T10:11:32;22.38;;;11.85;;
21999;SDS011;11164;48.818;2.322;2023-09-12T10:13:59;23.25;;;13.70;;
21999;SDS011;11164;48.818;2.322;2023-09-12T10:16:31;32.60;;;13.80;;
21999;SDS011;11164;48.818;2.322;2023-09-12T10:21:29;25.25;;;13.48;;
21999;SDS011;11164;48.818;2.322;2023-09-12T10:23:59;24.25;;;13.45;;
21999;SDS011;11164;48.818;2.322;2023-09-12T10:26:26;26.60;;;14.45;;
21999;SDS011;11164;48.818;2.322;2023-09-12T10:28:51;25.73;;;14.02;;
21999;SDS011;11164;48.818;2.322;2023-09-12T10:31:17;25.95;;;15.10;;
21999;SDS011;11164;48.818;2.322;2023-09-12T10:33:43;27.45;;;15.75;;
21999;SDS011;11164;48.818;2.322;2023-09-12T10:36:11;32.42;;;16.45;;
21999;SDS011;11164;48.818;2.322;2023-09-12T10:38:41;30.65;;;17.67;;
21999;SDS011;11164;48.818;2.322;2023-09-12T10:41:12;28.95;;;16.40;;
21999;SDS011;11164;48.818;2.322;2023-09-12T10:43:41;28.65;;;17.30;;
21999;SDS011;11164;48.818;2.322;2023-09-12T10:46:11;31.17;;;17.55;;
21999;SDS011;11164;48.818;2.322;2023-09-12T10:48:37;27.42;;;15.13;;
21999;SDS011;11164;48.818;2.322;2023-09-12T10:51:05;31.40;;;16.02;;
21999;SDS011;11164;48.818;2.322;2023-09-12T10:53:32;24.60;;;13.48;;
21999;SDS011;11164;48.818;2.322;2023-09-12T10:56:09;19.95;;;12.25;;
21999;SDS011;11164;48.818;2.322;2023-09-12T11:01:28;22.65;;;12.20;;
21999;SDS011;11164;48.818;2.322;2023-09-12T11:03:55;22.13;;;11.98;;
21999;SDS011;11164;48.818;2.322;2023-09-12T11:06:22;12.43;;;8.48;;
21999;SDS011;11164;48.818;2.322;2023-09-12T11:12:08;14.10;;;8.35;;
21999;SDS011;11164;48.818;2.322;2023-09-12T11:15:03;14.68;;;8.02;;
21999;SDS011;11164;48.818;2.322;2023-09-12T11:17:30;12.30;;;7.57;;
21999;SDS011;11164;48.818;2.322;2023-09-12T11:20:05;13.15;;;8.07;;
21999;SDS011;11164;48.818;2.322;2023-09-12T11:22:39;13.97;;;8.50;;
21999;SDS011;11164;48.818;2.322;2023-09-12T11:25:18;16.02;;;8.93;;
21999;SDS011;11164;48.818;2.322;2023-09-12T11:30:17;13.65;;;7.95;;
21999;SDS011;11164;48.818;2.322;2023-09-12T11:32:43;10.90;;;6.07;;
21999;SDS011;11164;48.818;2.322;2023-09-12T11:35:10;9.57;;;5.50;;
21999;SDS011;11164;48.818;2.322;2023-09-12T11:37:38;10.88;;;5.82;;
21999;SDS011;11164;48.818;2.322;2023-09-12T11:40:45;10.68;;;6.10;;
21999;SDS011;11164;48.818;2.322;2023-09-12T11:42:57;12.65;;;7.20;;
21999;SDS011;11164;48.818;2.322;2023-09-12T11:45:22;13.30;;;7.10;;
21999;SDS011;11164;48.818;2.322;2023-09-12T11:47:48;13.80;;;8.25;;
21999;SDS011;11164;48.818;2.322;2023-09-12T11:53:07;12.98;;;7.72;;
21999;SDS011;11164;48.818;2.322;2023-09-12T11:55:34;11.70;;;7.38;;
21999;SDS011;11164;48.818;2.322;2023-09-12T11:58:03;11.68;;;7.97;;
21999;SDS011;11164;48.818;2.322;2023-09-12T12:00:29;13.25;;;7.85;;
21999;SDS011;11164;48.818;2.322;2023-09-12T12:02:55;11.60;;;7.38;;
21999;SDS011;11164;48.818;2.322;2023-09-12T12:05:21;12.43;;;7.97;;
21999;SDS011;11164;48.818;2.322;2023-09-12T12:07:47;12.98;;;8.00;;
21999;SDS011;11164;48.818;2.322;2023-09-12T12:10:14;14.02;;;8.80;;
21999;SDS011;11164;48.818;2.322;2023-09-12T12:12:39;13.10;;;8.82;;
21999;SDS011;11164;48.818;2.322;2023-09-12T12:15:09;14.68;;;9.20;;
21999;SDS011;11164;48.818;2.322;2023-09-12T12:17:36;16.40;;;10.20;;
21999;SDS011;11164;48.818;2.322;2023-09-12T12:20:02;16.67;;;9.77;;
21999;SDS011;11164;48.818;2.322;2023-09-12T12:22:35;15.23;;;9.75;;
21999;SDS011;11164;48.818;2.322;2023-09-12T12:25:07;14.60;;;9.52;;
21999;SDS011;11164;48.818;2.322;2023-09-12T12:27:37;12.57;;;8.35;;
21999;SDS011;11164;48.818;2.322;2023-09-12T12:30:07;10.43;;;6.57;;
21999;SDS011;11164;48.818;2.322;2023-09-12T12:32:39;9.93;;;6.72;;
21999;SDS011;11164;48.818;2.322;2023-09-12T12:35:08;10.05;;;6.28;;
21999;SDS011;11164;48.818;2.322;2023-09-12T12:37:35;8.77;;;5.60;;
21999;SDS011;11164;48.818;2.322;2023-09-12T12:40:01;7.88;;;5.60;;
21999;SDS011;11164;48.818;2.322;2023-09-12T12:42:35;9.18;;;6.10;;
21999;SDS011;11164;48.818;2.322;2023-09-12T12:45:10;8.00;;;5.75;;
21999;SDS011;11164;48.818;2.322;2023-09-12T12:47:45;9.07;;;5.53;;
21999;SDS011;11164;48.818;2.322;2023-09-12T12:50:11;8.80;;;5.88;;
21999;SDS011;11164;48.818;2.322;2023-09-12T12:52:38;10.00;;;5.68;;
21999;SDS011;11164;48.818;2.322;2023-09-12T12:55:04;7.30;;;5.55;;
21999;SDS011;11164;48.818;2.322;2023-09-12T12:57:31;9.43;;;6.05;;
21999;SDS011;11164;48.818;2.322;2023-09-12T12:59:56;11.77;;;6.03;;
21999;SDS011;11164;48.818;2.322;2023-09-12T13:02:23;11.80;;;6.68;;
21999;SDS011;11164;48.818;2.322;2023-09-12T13:04:48;8.98;;;6.45;;
21999;SDS011;11164;48.818;2.322;2023-09-12T13:07:14;12.18;;;5.63;;
21999;SDS011;11164;48.818;2.322;2023-09-12T13:09:39;10.68;;;6.22;;
21999;SDS011;11164;48.818;2.322;2023-09-12T13:12:05;8.73;;;5.95;;
21999;SDS011;11164;48.818;2.322;2023-09-12T13:14:31;10.93;;;7.00;;
21999;SDS011;11164;48.818;2.322;2023-09-12T13:16:57;11.45;;;6.80;;
21999;SDS011;11164;48.818;2.322;2023-09-12T13:19:24;10.70;;;6.35;;
21999;SDS011;11164;48.818;2.322;2023-09-12T13:21:50;9.98;;;6.57;;
21999;SDS011;11164;48.818;2.322;2023-09-12T13:24:15;10.15;;;6.13;;
21999;SDS011;11164;48.818;2.322;2023-09-12T13:26:40;8.77;;;5.95;;
21999;SDS011;11164;48.818;2.322;2023-09-12T13:29:06;8.77;;;5.32;;
21999;SDS011;11164;48.818;2.322;2023-09-12T13:31:31;7.57;;;4.90;;
21999;SDS011;11164;48.818;2.322;2023-09-12T13:33:57;9.30;;;5.10;;
21999;SDS011;11164;48.818;2.322;2023-09-12T13:36:22;7.15;;;5.00;;
21999;SDS011;11164;48.818;2.322;2023-09-12T13:38:48;6.80;;;4.05;;
21999;SDS011;11164;48.818;2.322;2023-09-12T13:41:16;6.43;;;4.00;;
21999;SDS011;11164;48.818;2.322;2023-09-12T13:43:41;8.95;;;4.90;;
21999;SDS011;11164;48.818;2.322;2023-09-12T13:46:06;6.97;;;5.00;;
21999;SDS011;11164;48.818;2.322;2023-09-12T13:48:34;8.20;;;5.30;;
21999;SDS011;11164;48.818;2.322;2023-09-12T13:50:59;7.00;;;4.75;;
21999;SDS011;11164;48.818;2.322;2023-09-12T13:53:25;7.88;;;4.65;;
21999;SDS011;11164;48.818;2.322;2023-09-12T13:55:50;9.20;;;4.47;;
21999;SDS011;11164;48.818;2.322;2023-09-12T13:58:15;6.65;;;4.85;;
21999;SDS011;11164;48.818;2.322;2023-09-12T14:00:41;6.25;;;4.72;;
21999;SDS011;11164;48.818;2.322;2023-09-12T14:03:06;8.02;;;5.03;;
21999;SDS011;11164;48.818;2.322;2023-09-12T14:05:31;8.30;;;5.70;;
21999;SDS011;11164;48.818;2.322;2023-09-12T14:07:57;9.88;;;5.45;;
21999;SDS011;11164;48.818;2.322;2023-09-12T14:10:22;6.87;;;5.13;;
21999;SDS011;11164;48.818;2.322;2023-09-12T14:12:47;8.90;;;5.18;;
21999;SDS011;11164;48.818;2.322;2023-09-12T14:15:13;8.93;;;5.00;;
21999;SDS011;11164;48.818;2.322;2023-09-12T14:17:40;8.75;;;4.93;;
21999;SDS011;11164;48.818;2.322;2023-09-12T14:20:06;8.63;;;5.53;;
21999;SDS011;11164;48.818;2.322;2023-09-12T14:22:32;7.82;;;5.40;;
21999;SDS011;11164;48.818;2.322;2023-09-12T14:24:58;8.50;;;5.75;;
21999;SDS011;11164;48.818;2.322;2023-09-12T14:27:23;9.75;;;5.63;;
21999;SDS011;11164;48.818;2.322;2023-09-12T14:29:49;7.13;;;4.78;;
21999;SDS011;11164;48.818;2.322;2023-09-12T14:32:15;7.65;;;5.13;;
21999;SDS011;11164;48.818;2.322;2023-09-12T14:34:41;10.15;;;5.80;;
21999;SDS011;11164;48.818;2.322;2023-09-12T14:37:06;9.30;;;5.95;;
21999;SDS011;11164;48.818;2.322;2023-09-12T14:39:31;9.35;;;6.85;;
21999;SDS011;11164;48.818;2.322;2023-09-12T14:41:58;9.90;;;7.82;;
21999;SDS011;11164;48.818;2.322;2023-09-12T14:44:24;11.73;;;7.57;;
21999;SDS011;11164;48.818;2.322;2023-09-12T14:46:50;11.95;;;7.43;;
21999;SDS011;11164;48.818;2.322;2023-09-12T14:49:15;11.65;;;8.25;;
21999;SDS011;11164;48.818;2.322;2023-09-12T14:51:41;11.35;;;7.72;;
21999;SDS011;11164;48.818;2.322;2023-09-12T14:54:06;11.80;;;7.88;;
21999;SDS011;11164;48.818;2.322;2023-09-12T14:56:33;10.45;;;7.43;;